createdAt,value
2022-10-22T00:01:24.672Z,1531.40
2022-10-22T00:03:53.270Z,1532.95
2022-10-22T00:06:21.364Z,1537.47
2022-10-22T00:08:49.624Z,1532.88
2022-10-22T00:11:20.764Z,1535.07
2022-10-22T00:13:49.708Z,1527.65
2022-10-22T00:16:17.919Z,1534.18
2022-10-22T00:18:45.913Z,1533.90
2022-10-22T00:21:13.991Z,1527.95
2022-10-22T00:23:42.728Z,1532.72
2022-10-22T00:26:11.954Z,1529.20
2022-10-22T00:28:41.436Z,1530.82
2022-10-22T00:31:09.508Z,1543.95
2022-10-22T00:33:37.545Z,1530.30
2022-10-22T00:36:06.104Z,1533.65
2022-10-22T00:38:34.278Z,1527.70
2022-10-22T00:43:36.055Z,1533.07
2022-10-22T00:46:05.682Z,1540.63
2022-10-22T00:48:34.795Z,1535.18
2022-10-22T00:51:09.144Z,1529.13
2022-10-22T00:53:40.675Z,1533.07
2022-10-22T00:56:10.027Z,1531.68
2022-10-22T00:58:40.715Z,1531.97
2022-10-22T01:01:13.947Z,1529.40
2022-10-22T01:03:42.120Z,1524.20
2022-10-22T01:06:16.158Z,1531.00
2022-10-22T01:08:54.293Z,1528.28
2022-10-22T01:11:28.810Z,1535.22
2022-10-22T01:14:03.611Z,1531.03
2022-10-22T01:16:41.484Z,1520.65
2022-10-22T01:19:26.640Z,1533.10
2022-10-22T01:21:59.762Z,1526.88
2022-10-22T01:24:43.083Z,1533.13
2022-10-22T01:27:35.803Z,1528.63
2022-10-22T01:30:08.144Z,1525.20
2022-10-22T01:32:40.972Z,1524.30
2022-10-22T01:35:12.761Z,1533.18
2022-10-22T01:37:45.165Z,1525.45
2022-10-22T01:40:15.055Z,1526.72
2022-10-22T01:42:43.086Z,1532.43
2022-10-22T01:45:16.295Z,1520.50
2022-10-22T01:47:55.244Z,1528.43
2022-10-22T01:50:43.558Z,1530.60
2022-10-22T01:53:26.328Z,1528.57
2022-10-22T01:56:07.095Z,1529.20
2022-10-22T01:58:44.369Z,1529.15
2022-10-22T02:01:22.884Z,1525.33
2022-10-22T02:03:57.233Z,1526.28
2022-10-22T02:09:22.793Z,1524.03
2022-10-22T02:11:52.480Z,1522.60
2022-10-22T02:14:21.071Z,1524.63
2022-10-22T02:16:51.587Z,1523.80
2022-10-22T02:19:26.523Z,1525.30
2022-10-22T02:21:55.609Z,1524.90
2022-10-22T02:24:25.111Z,1526.27
2022-10-22T02:27:00.254Z,1525.05
2022-10-22T02:29:33.934Z,1530.85
2022-10-22T02:32:06.947Z,1522.45
2022-10-22T02:34:35.339Z,1527.22
2022-10-22T02:37:05.286Z,1525.28
2022-10-22T02:39:36.308Z,1526.82
2022-10-22T02:42:04.925Z,1526.43
2022-10-22T02:44:33.107Z,1527.22
2022-10-22T02:47:01.463Z,1528.15
2022-10-22T02:49:31.265Z,1531.35
2022-10-22T02:51:59.758Z,1525.47
2022-10-22T02:54:28.013Z,1529.10
2022-10-22T02:56:56.136Z,1531.03
2022-10-22T02:59:24.402Z,1531.53
2022-10-22T03:01:52.468Z,1525.70
2022-10-22T03:04:20.675Z,1526.07
2022-10-22T03:06:50.188Z,1531.10
2022-10-22T03:09:21.330Z,1532.78
2022-10-22T03:11:52.239Z,1530.30
2022-10-22T03:14:22.976Z,1523.22
2022-10-22T03:16:51.051Z,1524.88
2022-10-22T03:19:19.262Z,1528.13
2022-10-22T03:21:51.746Z,1526.05
2022-10-22T03:24:22.517Z,1519.93
2022-10-22T03:26:53.080Z,1529.00
2022-10-22T03:29:23.190Z,1526.43
2022-10-22T03:31:51.240Z,1526.40
2022-10-22T03:34:19.253Z,1531.82
2022-10-22T03:36:47.788Z,1527.13
2022-10-22T03:39:19.704Z,1526.60
2022-10-22T03:41:48.081Z,1528.30
2022-10-22T03:44:17.616Z,1532.28
2022-10-22T03:46:46.083Z,1527.03
2022-10-22T03:49:14.173Z,1535.85
2022-10-22T03:51:42.181Z,1534.20
2022-10-22T03:54:10.519Z,1524.20
2022-10-22T03:56:39.887Z,1523.15
2022-10-22T03:59:07.937Z,1535.37
2022-10-22T04:01:36.101Z,1528.47
2022-10-22T04:04:04.247Z,1537.43
2022-10-22T04:06:32.363Z,1532.83
2022-10-22T04:09:01.168Z,1523.65
2022-10-22T04:11:29.406Z,1522.07
2022-10-22T04:13:58.761Z,1532.15
2022-10-22T04:16:30.973Z,1526.05
2022-10-22T04:18:59.027Z,1529.97
2022-10-22T04:21:27.284Z,1532.47
2022-10-22T04:23:55.445Z,1527.18
2022-10-22T04:26:23.465Z,1537.30
2022-10-22T04:28:52.974Z,1525.72
2022-10-22T04:31:23.957Z,1531.28
2022-10-22T04:33:54.604Z,1539.53
2022-10-22T04:36:22.898Z,1529.75
2022-10-22T04:38:55.078Z,1531.18
2022-10-22T04:41:26.732Z,1526.68
2022-10-22T04:43:55.678Z,1533.50
2022-10-22T04:46:26.428Z,1530.90
2022-10-22T04:48:54.568Z,1526.05
2022-10-22T04:51:25.592Z,1526.75
2022-10-22T04:53:54.552Z,1526.63
2022-10-22T04:56:25.135Z,1535.47
2022-10-22T04:58:55.280Z,1530.07
2022-10-22T05:01:26.677Z,1537.15
2022-10-22T05:03:56.437Z,1523.90
2022-10-22T05:06:25.413Z,1526.70
2022-10-22T05:08:55.897Z,1528.80
2022-10-22T05:11:27.849Z,1528.18
2022-10-22T05:13:57.928Z,1528.93
2022-10-22T05:16:28.640Z,1532.17
2022-10-22T05:18:57.288Z,1526.43
2022-10-22T05:21:25.482Z,1530.72
2022-10-22T05:23:54.828Z,1527.40
2022-10-22T05:26:25.134Z,1523.47
2022-10-22T05:28:53.686Z,1527.05
2022-10-22T05:31:22.374Z,1534.45
2022-10-22T05:33:52.762Z,1523.95
2022-10-22T05:36:23.096Z,1532.75
2022-10-22T05:38:51.502Z,1536.03
2022-10-22T05:41:21.545Z,1533.90
2022-10-22T05:43:49.878Z,1530.97
2022-10-22T05:46:22.721Z,1541.75
2022-10-22T05:48:53.256Z,1532.00
2022-10-22T05:51:21.814Z,1536.57
2022-10-22T05:53:53.412Z,1524.45
2022-10-22T05:56:21.766Z,1529.82
2022-10-22T05:58:49.981Z,1536.40
2022-10-22T06:01:20.845Z,1528.00
2022-10-22T06:03:49.446Z,1531.50
2022-10-22T06:06:22.875Z,1541.03
2022-10-22T06:08:52.725Z,1539.00
2022-10-22T06:11:22.245Z,1523.97
2022-10-22T06:13:51.253Z,1533.68
2022-10-22T06:16:19.429Z,1539.85
2022-10-22T06:18:47.604Z,1525.90
2022-10-22T06:21:17.088Z,1536.03
2022-10-22T06:23:46.712Z,1527.90
2022-10-22T06:26:15.433Z,1529.05
2022-10-22T06:28:43.411Z,1523.93
2022-10-22T06:31:11.868Z,1543.88
2022-10-22T06:33:42.412Z,1536.97
2022-10-22T06:36:13.006Z,1532.05
2022-10-22T06:38:42.085Z,1538.43
2022-10-22T06:41:13.230Z,1525.75
2022-10-22T06:43:41.831Z,1536.20
2022-10-22T06:46:14.664Z,1536.07
2022-10-22T06:48:49.837Z,1534.67
2022-10-22T06:51:18.547Z,1528.38
2022-10-22T06:53:46.784Z,1538.80
2022-10-22T06:56:18.955Z,1536.10
2022-10-22T06:58:48.471Z,1540.50
2022-10-22T07:01:18.364Z,1542.22
2022-10-22T07:03:46.857Z,1542.05
2022-10-22T07:06:16.095Z,1534.07
2022-10-22T07:08:45.016Z,1536.97
2022-10-22T07:11:17.212Z,1540.22
2022-10-22T07:13:46.062Z,1539.03
2022-10-22T07:16:15.522Z,1540.53
2022-10-22T07:18:44.022Z,1546.15
2022-10-22T07:21:13.269Z,1536.10
2022-10-22T07:23:41.398Z,1536.40
2022-10-22T07:26:10.984Z,1539.78
2022-10-22T07:28:41.084Z,1537.20
2022-10-22T07:31:11.446Z,1534.88
2022-10-22T07:33:39.893Z,1531.70
2022-10-22T07:36:11.403Z,1533.82
2022-10-22T07:38:39.502Z,1532.50
2022-10-22T07:41:07.503Z,1535.57
2022-10-22T07:43:35.597Z,1537.20
2022-10-22T07:46:04.964Z,1536.20
2022-10-22T07:48:33.038Z,1532.10
2022-10-22T07:51:01.060Z,1539.03
2022-10-22T07:53:29.152Z,1531.75
2022-10-22T07:55:57.185Z,1532.25
2022-10-22T07:58:25.780Z,1530.40
2022-10-22T08:00:56.778Z,1533.07
2022-10-22T08:03:26.287Z,1532.00
2022-10-22T08:05:54.830Z,1533.38
2022-10-22T08:08:25.951Z,1534.23
2022-10-22T08:10:59.735Z,1535.88
2022-10-22T08:13:28.806Z,1530.47
2022-10-22T08:15:57.787Z,1524.25
2022-10-22T08:18:27.477Z,1511.45
2022-10-22T08:20:55.973Z,1517.75
2022-10-22T08:23:26.232Z,1525.30
2022-10-22T08:25:57.309Z,1513.38
2022-10-22T08:28:25.707Z,1513.78
2022-10-22T08:30:53.927Z,1511.40
2022-10-22T08:33:21.930Z,1510.47
2022-10-22T08:35:52.740Z,1503.32
2022-10-22T08:38:21.403Z,1505.57
2022-10-22T08:40:53.881Z,1506.30
2022-10-22T08:43:37.622Z,1497.47
2022-10-22T08:46:23.645Z,1501.97
2022-10-22T08:48:55.090Z,1503.50
2022-10-22T08:51:28.362Z,1503.65
2022-10-22T08:54:15.421Z,1497.72
2022-10-22T08:56:47.488Z,1502.20
2022-10-22T08:59:21.191Z,1498.47
2022-10-22T09:01:52.588Z,1494.40
2022-10-22T09:04:26.191Z,1496.82
2022-10-22T09:06:58.736Z,1499.07
2022-10-22T09:09:32.512Z,1492.78
2022-10-22T09:12:02.218Z,1499.47
2022-10-22T09:14:31.321Z,1497.00
2022-10-22T09:17:21.925Z,1493.85
2022-10-22T09:20:02.213Z,1499.93
2022-10-22T09:22:39.784Z,1495.33
2022-10-22T09:25:20.267Z,1503.88
2022-10-22T09:27:49.128Z,1505.97
2022-10-22T09:30:20.105Z,1492.85
2022-10-22T09:32:51.764Z,1506.90
2022-10-22T09:35:25.265Z,1494.22
2022-10-22T09:37:56.678Z,1499.72
2022-10-22T09:40:24.880Z,1506.60
2022-10-22T09:42:52.813Z,1493.45
2022-10-22T09:45:22.809Z,1496.32
2022-10-22T09:48:01.647Z,1496.27
2022-10-22T09:50:38.195Z,1500.45
2022-10-22T09:53:15.180Z,1492.60
2022-10-22T09:55:44.345Z,1497.72
2022-10-22T09:58:14.311Z,1492.90
2022-10-22T10:00:45.905Z,1496.53
2022-10-22T10:03:19.220Z,1491.07
2022-10-22T10:05:49.962Z,1495.85
2022-10-22T10:08:20.108Z,1499.28
2022-10-22T10:10:50.949Z,1495.47
2022-10-22T10:13:44.875Z,1502.40
2022-10-22T10:16:27.436Z,1499.38
2022-10-22T10:19:10.820Z,1500.03
2022-10-22T10:21:48.800Z,1497.05
2022-10-22T10:24:26.406Z,1479.05
2022-10-22T10:27:01.002Z,1484.20
2022-10-22T10:29:45.971Z,1482.18
2022-10-22T10:32:33.628Z,1479.25
2022-10-22T10:35:16.311Z,1475.68
2022-10-22T10:37:48.063Z,1486.90
2022-10-22T10:40:27.775Z,1480.35
2022-10-22T10:42:59.752Z,1477.93
2022-10-22T10:45:34.961Z,1485.22
2022-10-22T10:48:30.963Z,1479.93
2022-10-22T10:51:06.314Z,1487.78
2022-10-22T10:53:55.926Z,1486.35
2022-10-22T10:56:39.138Z,1498.20
2022-10-22T10:59:18.590Z,1487.07
2022-10-22T11:02:05.711Z,1477.22
2022-10-22T11:05:04.131Z,1477.88
2022-10-22T11:07:39.932Z,1485.65
2022-10-22T11:10:14.860Z,1475.60
2022-10-22T11:12:48.804Z,1478.38
2022-10-22T11:15:26.878Z,1474.95
2022-10-22T11:17:57.695Z,1483.68
2022-10-22T11:20:31.514Z,1474.60
2022-10-22T11:23:21.866Z,1474.50
2022-10-22T11:25:51.316Z,1477.78
2022-10-22T11:28:25.764Z,1482.80
2022-10-22T11:31:00.196Z,1480.53
2022-10-22T11:33:33.809Z,1476.93
2022-10-22T11:36:05.087Z,1477.95
2022-10-22T11:38:35.922Z,1474.00
2022-10-22T11:41:08.458Z,1481.65
2022-10-22T11:43:57.441Z,1480.10
2022-10-22T11:46:36.236Z,1493.45
2022-10-22T11:49:17.555Z,1481.93
2022-10-22T11:51:46.733Z,1482.15
2022-10-22T11:54:31.159Z,1479.43
2022-10-22T11:57:24.454Z,1480.53
2022-10-22T11:59:58.994Z,1479.38
2022-10-22T12:02:44.223Z,1479.05
2022-10-22T12:05:43.767Z,1482.30
2022-10-22T12:08:26.813Z,1474.72
2022-10-22T12:11:14.811Z,1482.18
2022-10-22T12:14:20.649Z,1474.97
2022-10-22T12:16:56.876Z,1489.20
2022-10-22T12:19:28.772Z,1480.63
2022-10-22T12:21:59.969Z,1468.80
2022-10-22T12:24:33.777Z,1470.20
2022-10-22T12:27:01.887Z,1478.78
2022-10-22T12:29:33.712Z,1468.57
2022-10-22T12:32:05.818Z,1476.60
2022-10-22T12:34:33.908Z,1477.22
2022-10-22T12:37:06.831Z,1487.28
2022-10-22T12:39:35.644Z,1486.05
2022-10-22T12:42:07.217Z,1485.60
2022-10-22T12:44:35.331Z,1485.68
2022-10-22T12:47:05.117Z,1486.20
2022-10-22T12:49:37.593Z,1487.65
2022-10-22T12:52:10.843Z,1483.45
2022-10-22T12:54:42.200Z,1493.13
2022-10-22T12:57:14.499Z,1476.65
2022-10-22T12:59:47.268Z,1478.03
2022-10-22T13:02:26.516Z,1482.72
2022-10-22T13:05:18.073Z,1484.13
2022-10-22T13:07:49.327Z,1478.95
2022-10-22T13:10:21.559Z,1482.32
2022-10-22T13:12:55.912Z,1486.30
2022-10-22T13:15:36.533Z,1484.65
2022-10-22T13:18:16.735Z,1479.85
2022-10-22T13:20:56.054Z,1480.97
2022-10-22T13:23:26.726Z,1487.05
2022-10-22T13:26:04.411Z,1481.22
2022-10-22T13:28:33.758Z,1480.10
2022-10-22T13:31:03.904Z,1482.20
2022-10-22T13:33:36.064Z,1475.22
2022-10-22T13:36:05.248Z,1479.97
2022-10-22T13:38:33.247Z,1480.53
2022-10-22T13:41:04.294Z,1481.65
2022-10-22T13:43:32.361Z,1476.63
2022-10-22T13:46:01.611Z,1479.82
2022-10-22T13:48:31.152Z,1469.30
2022-10-22T13:51:00.603Z,1476.20
2022-10-22T13:53:31.304Z,1492.18
2022-10-22T13:55:59.344Z,1495.25
2022-10-22T13:58:27.470Z,1495.83
2022-10-22T14:00:57.932Z,1496.28
2022-10-22T14:03:29.225Z,1497.50
2022-10-22T14:05:57.877Z,1494.35
2022-10-22T14:08:29.308Z,1495.65
2022-10-22T14:10:57.754Z,1498.40
2022-10-22T14:13:26.586Z,1518.88
2022-10-22T14:15:55.017Z,1514.80
2022-10-22T14:18:27.465Z,1509.85
2022-10-22T14:20:57.818Z,1507.68
2022-10-22T14:23:29.403Z,1504.50
2022-10-22T14:25:58.247Z,1505.38
2022-10-22T14:28:26.564Z,1491.63
2022-10-22T14:30:55.750Z,1499.88
2022-10-22T14:33:30.349Z,1487.18
2022-10-22T14:36:00.127Z,1504.95
2022-10-22T14:38:30.932Z,1507.18
2022-10-22T14:41:00.854Z,1509.10
2022-10-22T14:43:31.119Z,1505.45
2022-10-22T14:45:59.878Z,1519.43
2022-10-22T14:48:28.176Z,1519.38
2022-10-22T14:50:56.209Z,1508.30
2022-10-22T14:53:24.333Z,1508.53
2022-10-22T14:55:55.587Z,1498.38
2022-10-22T14:58:23.720Z,1508.40
2022-10-22T15:00:51.741Z,1505.95
2022-10-22T15:03:19.990Z,1503.20
2022-10-22T15:05:48.046Z,1503.28
2022-10-22T15:08:16.406Z,1497.82
2022-10-22T15:10:44.360Z,1502.88
2022-10-22T15:13:13.833Z,1501.82
2022-10-22T15:15:42.421Z,1504.20
2022-10-22T15:18:10.645Z,1514.40
2022-10-22T15:20:38.768Z,1509.28
2022-10-22T15:23:06.900Z,1513.95
2022-10-22T15:25:34.839Z,1511.22
2022-10-22T15:28:09.657Z,1508.47
2022-10-22T15:30:39.387Z,1506.82
2022-10-22T15:33:07.450Z,1494.40
2022-10-22T15:35:35.489Z,1494.85
2022-10-22T15:38:06.569Z,1498.35
2022-10-22T15:40:34.669Z,1496.30
2022-10-22T15:43:02.752Z,1496.05
2022-10-22T15:45:30.787Z,1496.95
2022-10-22T15:48:00.250Z,1496.50
2022-10-22T15:50:28.327Z,1500.15
2022-10-22T15:52:56.441Z,1503.65
2022-10-22T15:55:24.551Z,1489.87
2022-10-22T15:57:58.014Z,1500.97
2022-10-22T16:00:28.633Z,1495.45
2022-10-22T16:02:56.661Z,1504.75
2022-10-22T16:05:29.573Z,1504.57
2022-10-22T16:07:57.658Z,1506.50
2022-10-22T16:10:26.129Z,1491.18
2022-10-22T16:12:54.853Z,1491.43
2022-10-22T16:15:22.902Z,1490.07
2022-10-22T16:17:52.977Z,1487.38
2022-10-22T16:20:20.969Z,1492.60
2022-10-22T16:22:52.088Z,1497.90
2022-10-22T16:25:20.197Z,1495.25
2022-10-22T16:27:50.493Z,1499.65
2022-10-22T16:30:18.665Z,1502.50
2022-10-22T16:32:46.629Z,1498.22
2022-10-22T16:35:14.794Z,1490.72
2022-10-22T16:37:42.996Z,1500.53
2022-10-22T16:40:13.813Z,1497.45
2022-10-22T16:42:42.075Z,1493.13
2022-10-22T16:45:10.937Z,1499.10
2022-10-22T16:47:39.645Z,1497.20
2022-10-22T16:50:08.812Z,1492.07
2022-10-22T16:52:36.948Z,1487.32
2022-10-22T16:55:05.415Z,1476.57
2022-10-22T16:57:35.905Z,1489.47
2022-10-22T17:00:05.183Z,1482.55
2022-10-22T17:02:33.401Z,1511.10
2022-10-22T17:05:01.439Z,1493.95
2022-10-22T17:07:29.645Z,1492.37
2022-10-22T17:09:57.627Z,1485.65
2022-10-22T17:12:25.698Z,1488.30
2022-10-22T17:14:55.377Z,1491.60
2022-10-22T17:17:23.526Z,1491.97
2022-10-22T17:19:51.572Z,1487.72
2022-10-22T17:22:19.614Z,1506.95
2022-10-22T17:24:47.719Z,1538.13
2022-10-22T17:27:41.771Z,1546.88
2022-10-22T17:30:16.839Z,1550.78
2022-10-22T17:32:45.024Z,1555.15
2022-10-22T17:35:15.929Z,1556.55
2022-10-22T17:37:44.177Z,1555.73
2022-10-22T17:40:14.402Z,1557.10
2022-10-22T17:42:42.809Z,1559.72
2022-10-22T17:45:12.514Z,1559.88
2022-10-22T17:47:40.807Z,1566.90
2022-10-22T17:50:10.328Z,1566.82
2022-10-22T17:52:38.732Z,1564.40
2022-10-22T17:55:07.685Z,1560.93
2022-10-22T17:57:35.781Z,1565.90
2022-10-22T18:00:04.332Z,1564.38
2022-10-22T18:02:34.375Z,1562.88
2022-10-22T18:05:02.425Z,1561.97
2022-10-22T18:07:30.628Z,1560.53
2022-10-22T18:09:58.630Z,1565.67
2022-10-22T18:12:26.814Z,1569.03
2022-10-22T18:14:55.298Z,1568.27
2022-10-22T18:17:24.361Z,1570.22
2022-10-22T18:19:53.743Z,1569.30
2022-10-22T18:22:21.763Z,1570.45
2022-10-22T18:24:49.866Z,1573.72
2022-10-22T18:27:17.954Z,1568.35
2022-10-22T18:29:47.040Z,1575.15
2022-10-22T18:32:15.169Z,1575.30
2022-10-22T18:34:43.143Z,1586.53
2022-10-22T18:37:13.505Z,1574.90
2022-10-22T18:39:41.753Z,1577.32
2022-10-22T18:42:09.929Z,1577.05
2022-10-22T18:44:37.945Z,1573.93
2022-10-22T18:47:06.251Z,1574.00
2022-10-22T18:49:34.237Z,1575.72
2022-10-22T18:52:02.412Z,1575.95
2022-10-22T18:54:31.874Z,1578.15
2022-10-22T18:57:02.945Z,1573.75
2022-10-22T18:59:32.160Z,1577.60
2022-10-22T19:02:00.438Z,1578.15
2022-10-22T19:04:33.244Z,1574.35
2022-10-22T19:07:01.507Z,1579.97
2022-10-22T19:09:31.197Z,1580.72
2022-10-22T19:12:00.403Z,1584.10
2022-10-22T19:14:29.106Z,1580.38
2022-10-22T19:16:57.292Z,1576.68
2022-10-22T19:19:25.505Z,1595.53
2022-10-22T19:21:53.832Z,1590.47
2022-10-22T19:24:21.979Z,1597.72
2022-10-22T19:26:51.433Z,1592.15
2022-10-22T19:29:21.094Z,1594.25
2022-10-22T19:31:51.139Z,1592.88
2022-10-22T19:34:19.812Z,1592.03
2022-10-22T19:36:48.553Z,1591.50
2022-10-22T19:39:18.091Z,1586.95
2022-10-22T19:41:46.787Z,1581.55
2022-10-22T19:44:20.012Z,1579.18
2022-10-22T19:46:48.098Z,1577.75
2022-10-22T19:49:18.974Z,1576.18
2022-10-22T19:51:50.150Z,1573.65
2022-10-22T19:54:20.313Z,1577.90
2022-10-22T19:56:49.160Z,1586.25
2022-10-22T19:59:20.630Z,1585.07
2022-10-22T20:01:48.912Z,1579.25
2022-10-22T20:04:18.201Z,1582.15
2022-10-22T20:06:47.131Z,1589.07
2022-10-22T20:09:15.199Z,1585.32
2022-10-22T20:11:44.523Z,1588.15
2022-10-22T20:14:12.581Z,1580.90
2022-10-22T20:16:42.280Z,1583.53
2022-10-22T20:19:13.412Z,1595.55
2022-10-22T20:21:41.838Z,1594.38
2022-10-22T20:24:09.985Z,1592.25
2022-10-22T20:26:37.971Z,1594.43
2022-10-22T20:29:06.050Z,1591.72
2022-10-22T20:31:35.934Z,1584.75
2022-10-22T20:34:05.337Z,1592.03
2022-10-22T20:36:33.848Z,1595.53
2022-10-22T20:39:06.171Z,1585.70
2022-10-22T20:41:35.301Z,1597.00
2022-10-22T20:44:03.312Z,1594.10
2022-10-22T20:46:33.385Z,1590.00
2022-10-22T20:49:03.137Z,1587.32
2022-10-22T20:51:33.137Z,1592.88
2022-10-22T20:54:01.148Z,1588.57
2022-10-22T20:56:29.736Z,1595.10
2022-10-22T20:59:05.057Z,1585.05
2022-10-22T21:01:35.281Z,1591.65
2022-10-22T21:04:04.774Z,1589.40
2022-10-22T21:06:37.960Z,1586.97
2022-10-22T21:09:07.295Z,1580.03
2022-10-22T21:11:35.509Z,1589.00
2022-10-22T21:14:04.227Z,1585.22
2022-10-22T21:16:32.881Z,1596.43
2022-10-22T21:19:01.397Z,1586.53
2022-10-22T21:21:29.681Z,1576.50
2022-10-22T21:23:59.303Z,1585.05
2022-10-22T21:26:27.555Z,1579.78
2022-10-22T21:28:55.624Z,1588.00
2022-10-22T21:31:26.094Z,1586.10
2022-10-22T21:33:55.074Z,1583.93
2022-10-22T21:36:23.775Z,1582.72
2022-10-22T21:38:52.523Z,1576.68
2022-10-22T21:41:23.754Z,1583.95
2022-10-22T21:43:52.500Z,1587.32
2022-10-22T21:46:21.647Z,1589.00
2022-10-22T21:49:14.637Z,1577.03
2022-10-22T21:51:44.609Z,1581.53
2022-10-22T21:54:13.388Z,1579.25
2022-10-22T21:56:42.866Z,1584.13
2022-10-22T21:59:10.905Z,1578.57
2022-10-22T22:01:38.974Z,1593.80
2022-10-22T22:04:07.427Z,1588.75
2022-10-22T22:06:35.801Z,1584.72
2022-10-22T22:09:07.177Z,1587.03
2022-10-22T22:11:35.421Z,1590.20
2022-10-22T22:14:05.569Z,1586.30
2022-10-22T22:16:34.702Z,1588.80
2022-10-22T22:21:39.799Z,1585.75
2022-10-22T22:24:09.193Z,1589.82
2022-10-22T22:26:37.726Z,1588.22
2022-10-22T22:29:07.190Z,1593.18
2022-10-22T22:31:37.356Z,1582.25
2022-10-22T22:34:07.565Z,1593.75
2022-10-22T22:36:38.167Z,1593.03
2022-10-22T22:39:07.453Z,1587.07
2022-10-22T22:41:35.846Z,1591.20
2022-10-22T22:44:03.926Z,1591.78
2022-10-22T22:46:33.449Z,1599.05
2022-10-22T22:49:01.477Z,1597.78
2022-10-22T22:51:29.573Z,1598.00
2022-10-22T22:53:58.872Z,1598.60
2022-10-22T22:56:29.007Z,1609.55
2022-10-22T22:58:58.803Z,1611.78
2022-10-22T23:01:29.572Z,1607.20
2022-10-22T23:04:00.767Z,1596.75
2022-10-22T23:06:31.219Z,1600.32
2022-10-22T23:08:59.950Z,1593.43
2022-10-22T23:11:28.732Z,1597.60
2022-10-22T23:14:00.042Z,1601.82
2022-10-22T23:16:31.592Z,1596.78
2022-10-22T23:19:01.717Z,1602.73
2022-10-22T23:21:31.893Z,1599.83
2022-10-22T23:24:02.051Z,1596.38
2022-10-22T23:26:33.108Z,1593.75
2022-10-22T23:29:02.375Z,1584.55
2022-10-22T23:31:30.633Z,1592.72
2022-10-22T23:34:00.307Z,1590.93
2022-10-22T23:36:28.770Z,1593.95
2022-10-22T23:38:56.835Z,1589.38
2022-10-22T23:41:24.972Z,1590.23
2022-10-22T23:43:52.985Z,1588.70
2022-10-22T23:46:21.038Z,1588.23
2022-10-22T23:48:49.183Z,1589.32
2022-10-22T23:51:19.135Z,1592.40
2022-10-22T23:53:48.102Z,1597.50
2022-10-22T23:56:18.370Z,1589.13
2022-10-22T23:58:46.552Z,1593.13
